Brighton, Michigan
Current Conditions -  °F | °C
As of 5:55 PM on Thursday 27 Nov 2014 (Local Time) from KOZW Reporting Station
Overcast Overcast  
Wind Chill: 18°   Ceiling: 4800
Heat Index: 27°   Visibility: 10mi
Dew Point: 19°   Wind: 8mph
Humidity: 71%   Direction: 330°NNW
Pressure: 30.23"   Gusts: NA
Location:  42.53°N, 83.78°W
Report Text: KOZW 272255Z AUTO 33007KT 10SM SCT041 OVC048 M03/M07 A3023 RMK AO2 T10301075
Loading
Personal Weather Stations






























Interactive Weather Map New forecast layout! Learn more

10-Day Weather Forecast

Advertisements
Track Severe Weather on mobile